createdAt,value
2022-08-18T00:00:14.370Z,100.00
2022-08-18T00:03:01.026Z,100.00
2022-08-18T00:05:36.298Z,100.00
2022-08-18T00:08:10.705Z,100.00
2022-08-18T00:10:43.427Z,100.00
2022-08-18T00:13:12.751Z,100.00
2022-08-18T00:15:49.196Z,100.00
2022-08-18T00:18:19.358Z,100.00
2022-08-18T00:20:50.301Z,100.00
2022-08-18T00:23:19.950Z,100.00
2022-08-18T00:25:50.263Z,100.00
2022-08-18T00:28:19.749Z,100.00
2022-08-18T00:30:53.898Z,100.00
2022-08-18T00:33:24.096Z,100.00
2022-08-18T00:35:55.408Z,100.00
2022-08-18T00:38:25.643Z,100.00
2022-08-18T00:40:57.594Z,100.00
2022-08-18T00:43:37.216Z,100.00
2022-08-18T00:46:09.923Z,100.00
2022-08-18T00:48:39.377Z,100.00
2022-08-18T00:51:16.917Z,100.00
2022-08-18T00:53:52.171Z,100.00
2022-08-18T00:56:27.774Z,100.00
2022-08-18T00:59:04.231Z,100.00
2022-08-18T01:01:35.772Z,100.00
2022-08-18T01:04:15.412Z,100.00
2022-08-18T01:06:53.589Z,100.00
2022-08-18T01:09:23.582Z,100.00
2022-08-18T01:11:53.280Z,100.00
2022-08-18T01:14:23.142Z,100.00
2022-08-18T01:17:10.740Z,100.00
2022-08-18T01:19:58.315Z,100.00
2022-08-18T01:22:37.381Z,100.00
2022-08-18T01:25:28.393Z,100.00
2022-08-18T01:28:00.734Z,100.00
2022-08-18T01:30:33.031Z,100.00
2022-08-18T01:33:02.493Z,100.00
2022-08-18T01:35:41.513Z,100.00
2022-08-18T01:38:11.534Z,100.00
2022-08-18T01:41:22.377Z,100.00
2022-08-18T01:43:34.455Z,100.00
2022-08-18T01:46:05.446Z,100.00
2022-08-18T01:48:38.025Z,100.00
2022-08-18T01:51:13.166Z,100.00
2022-08-18T01:53:42.889Z,100.00
2022-08-18T01:56:17.740Z,100.00
2022-08-18T01:58:48.657Z,100.00
2022-08-18T02:01:18.480Z,100.00
2022-08-18T02:04:06.095Z,100.00
2022-08-18T02:06:47.785Z,100.00
2022-08-18T02:09:23.808Z,100.00
2022-08-18T02:11:56.206Z,100.00
2022-08-18T02:14:27.397Z,100.00
2022-08-18T02:17:01.808Z,100.00
2022-08-18T02:19:36.690Z,100.00
2022-08-18T02:22:09.393Z,100.00
2022-08-18T02:24:39.581Z,100.00
2022-08-18T02:27:12.881Z,100.00
2022-08-18T02:29:43.368Z,100.00
2022-08-18T02:32:13.001Z,100.00
2022-08-18T02:34:42.829Z,100.00
2022-08-18T02:37:15.324Z,100.00
2022-08-18T02:39:45.715Z,100.00
2022-08-18T02:42:19.416Z,100.00
2022-08-18T02:44:48.934Z,100.00
2022-08-18T02:47:21.320Z,100.00
2022-08-18T02:49:51.105Z,100.00
2022-08-18T02:52:20.590Z,100.00
2022-08-18T02:54:50.362Z,100.00
2022-08-18T02:57:23.681Z,100.00
2022-08-18T02:59:53.394Z,100.00
2022-08-18T03:02:23.366Z,100.00
2022-08-18T03:04:52.843Z,100.00
2022-08-18T03:07:22.356Z,100.00
2022-08-18T03:09:52.109Z,100.00
2022-08-18T03:12:22.972Z,100.00
2022-08-18T03:14:52.493Z,100.00
2022-08-18T03:17:22.077Z,100.00
2022-08-18T03:19:51.563Z,100.00
2022-08-18T03:22:28.411Z,100.00
2022-08-18T03:24:59.712Z,100.00
2022-08-18T03:27:30.796Z,100.00
2022-08-18T03:30:00.661Z,100.00
2022-08-18T03:32:30.518Z,100.00
2022-08-18T03:34:59.973Z,100.00
2022-08-18T03:37:29.457Z,100.00
2022-08-18T03:39:58.961Z,100.00
2022-08-18T03:42:29.827Z,100.00
2022-08-18T03:44:59.509Z,100.00
2022-08-18T03:47:28.969Z,100.00
2022-08-18T03:49:59.444Z,100.00
2022-08-18T03:52:28.988Z,100.00
2022-08-18T03:54:59.049Z,100.00
2022-08-18T03:57:33.178Z,100.00
2022-08-18T04:00:12.043Z,100.00
2022-08-18T04:02:41.762Z,100.00
2022-08-18T04:05:12.863Z,100.00
2022-08-18T04:07:44.480Z,100.00
2022-08-18T04:10:19.467Z,100.00
2022-08-18T04:12:51.296Z,100.00
2022-08-18T04:15:21.053Z,100.00
2022-08-18T04:18:03.080Z,100.00
2022-08-18T04:20:33.902Z,100.00
2022-08-18T04:23:04.134Z,100.00
2022-08-18T04:25:33.721Z,100.00
2022-08-18T04:28:04.880Z,100.00
2022-08-18T04:30:34.475Z,100.00
2022-08-18T04:33:06.294Z,100.00
2022-08-18T04:35:35.857Z,100.00
2022-08-18T04:38:05.389Z,100.00
2022-08-18T04:40:34.906Z,100.00
2022-08-18T04:43:05.834Z,100.00
2022-08-18T04:45:36.333Z,100.00
2022-08-18T04:48:06.821Z,100.00
2022-08-18T04:50:38.111Z,100.00
2022-08-18T04:53:25.533Z,100.00
2022-08-18T04:55:57.610Z,100.00
2022-08-18T04:58:28.471Z,100.00
2022-08-18T05:01:01.841Z,100.00
2022-08-18T05:03:31.386Z,100.00
2022-08-18T05:06:05.316Z,100.00
2022-08-18T05:08:37.270Z,100.00
2022-08-18T05:11:07.269Z,100.00
2022-08-18T05:13:38.988Z,100.00
2022-08-18T05:16:11.884Z,100.00
2022-08-18T05:18:46.821Z,100.00
2022-08-18T05:21:16.628Z,100.00
2022-08-18T05:23:49.453Z,100.00
2022-08-18T05:26:20.929Z,100.00
2022-08-18T05:28:55.683Z,100.00
2022-08-18T05:31:41.112Z,100.00
2022-08-18T05:34:10.921Z,100.00
2022-08-18T05:37:23.573Z,100.00
2022-08-18T05:40:00.177Z,100.00
2022-08-18T05:42:36.699Z,100.00
2022-08-18T05:45:14.306Z,100.00
2022-08-18T05:47:44.665Z,100.00
2022-08-18T05:50:18.532Z,100.00
2022-08-18T05:52:56.723Z,100.00
2022-08-18T05:55:52.462Z,100.00
2022-08-18T05:58:33.100Z,100.00
2022-08-18T06:01:10.069Z,100.00
2022-08-18T06:03:50.473Z,100.00
2022-08-18T06:06:24.836Z,100.00
2022-08-18T06:09:05.676Z,100.00
2022-08-18T06:11:35.298Z,100.00
2022-08-18T06:14:05.073Z,100.00
2022-08-18T06:16:56.006Z,100.00
2022-08-18T06:19:47.234Z,100.00
2022-08-18T06:22:31.941Z,100.00
2022-08-18T06:25:13.518Z,100.00
2022-08-18T06:27:58.574Z,100.00
2022-08-18T06:30:47.156Z,100.00
2022-08-18T06:33:46.402Z,100.00
2022-08-18T06:36:29.331Z,100.00
2022-08-18T06:39:06.235Z,100.00
2022-08-18T06:41:43.484Z,100.00
2022-08-18T06:44:24.155Z,100.00
2022-08-18T06:47:04.144Z,100.00
2022-08-18T06:49:48.732Z,100.00
2022-08-18T06:52:30.457Z,100.00
2022-08-18T06:55:03.356Z,100.00
2022-08-18T06:57:38.110Z,100.00
2022-08-18T07:00:26.875Z,100.00
2022-08-18T07:03:10.499Z,100.00
2022-08-18T07:06:05.434Z,100.00
2022-08-18T07:08:40.141Z,100.00
2022-08-18T07:11:20.669Z,100.00
2022-08-18T07:14:09.418Z,100.00
2022-08-18T07:16:58.287Z,100.00
2022-08-18T07:19:32.959Z,100.00
2022-08-18T07:22:11.081Z,100.00
2022-08-18T07:24:44.262Z,100.00
2022-08-18T07:27:19.513Z,100.00
2022-08-18T07:30:07.609Z,100.00
2022-08-18T07:32:45.904Z,100.00
2022-08-18T07:35:23.868Z,100.00
2022-08-18T07:38:18.620Z,100.00
2022-08-18T07:40:57.665Z,100.00
2022-08-18T07:43:42.334Z,100.00
2022-08-18T07:46:19.045Z,100.00
2022-08-18T07:48:48.602Z,100.00
2022-08-18T07:51:33.854Z,100.00
2022-08-18T07:54:47.163Z,100.00
2022-08-18T07:57:20.830Z,100.00
2022-08-18T08:00:05.612Z,100.00
2022-08-18T08:03:01.035Z,100.00
2022-08-18T08:05:48.448Z,100.00
2022-08-18T08:08:31.455Z,100.00
2022-08-18T08:11:22.243Z,100.00
2022-08-18T08:14:24.267Z,100.00
2022-08-18T08:17:11.794Z,100.00
2022-08-18T08:20:08.407Z,100.00
2022-08-18T08:22:51.023Z,100.00
2022-08-18T08:25:45.629Z,100.00
2022-08-18T08:28:35.089Z,100.00
2022-08-18T08:31:35.555Z,100.00
2022-08-18T08:34:15.578Z,100.00
2022-08-18T08:36:49.161Z,100.00
2022-08-18T08:39:26.449Z,100.00
2022-08-18T08:42:31.904Z,100.00
2022-08-18T08:45:00.716Z,100.00
2022-08-18T08:47:38.256Z,100.00
2022-08-18T08:50:14.457Z,100.00
2022-08-18T08:52:49.013Z,100.00
2022-08-18T08:55:26.385Z,100.00
2022-08-18T08:58:18.360Z,100.00
2022-08-18T09:00:51.708Z,100.00
2022-08-18T09:03:41.436Z,100.00
2022-08-18T09:06:30.170Z,100.00
2022-08-18T09:09:25.182Z,100.00
2022-08-18T09:12:45.807Z,100.00
2022-08-18T09:15:56.449Z,100.00
2022-08-18T09:18:52.542Z,100.00
2022-08-18T09:21:38.626Z,100.00
2022-08-18T09:24:26.063Z,100.00
2022-08-18T09:27:26.525Z,100.00
2022-08-18T09:29:59.356Z,100.00
2022-08-18T09:32:58.113Z,100.00
2022-08-18T09:35:51.990Z,100.00
2022-08-18T09:38:48.670Z,100.00
2022-08-18T09:41:35.150Z,100.00
2022-08-18T09:47:02.645Z,100.00
2022-08-18T09:49:51.085Z,100.00
2022-08-18T09:50:37.282Z,100.00
2022-08-18T09:52:59.157Z,100.00
2022-08-18T09:56:05.113Z,100.00
2022-08-18T09:59:02.043Z,100.00
2022-08-18T10:01:42.532Z,100.00
2022-08-18T10:04:33.733Z,100.00
2022-08-18T10:07:38.848Z,100.00
2022-08-18T10:10:58.791Z,100.00
2022-08-18T10:13:25.125Z,100.00
2022-08-18T10:16:14.213Z,100.00
2022-08-18T10:19:05.932Z,100.00
2022-08-18T10:22:08.047Z,100.00
2022-08-18T10:24:47.994Z,100.00
2022-08-18T10:27:50.247Z,100.00
2022-08-18T10:31:10.192Z,100.00
2022-08-18T10:34:23.353Z,100.00
2022-08-18T10:36:58.987Z,100.00
2022-08-18T10:39:50.080Z,100.00
2022-08-18T10:42:31.297Z,100.00
2022-08-18T10:45:22.134Z,100.00
2022-08-18T10:48:17.335Z,100.00
2022-08-18T10:50:59.260Z,100.00
2022-08-18T10:53:39.787Z,100.00
2022-08-18T10:56:34.240Z,100.00
2022-08-18T10:59:28.642Z,100.00
2022-08-18T11:02:37.038Z,100.00
2022-08-18T11:05:11.330Z,100.00
2022-08-18T11:07:44.875Z,100.00
2022-08-18T11:10:31.895Z,100.00
2022-08-18T11:13:16.230Z,100.00
2022-08-18T11:16:02.960Z,100.00
2022-08-18T11:18:43.489Z,100.00
2022-08-18T11:21:41.761Z,100.00
2022-08-18T11:24:28.928Z,100.00
2022-08-18T11:27:02.894Z,100.00
2022-08-18T11:29:38.275Z,100.00
2022-08-18T11:32:18.019Z,100.00
2022-08-18T11:34:53.838Z,100.00
2022-08-18T11:37:49.260Z,100.00
2022-08-18T11:46:33.390Z,100.00
2022-08-18T11:49:24.032Z,100.00
2022-08-18T11:52:05.629Z,100.00
2022-08-18T11:54:50.972Z,100.00
2022-08-18T11:57:46.619Z,100.00
2022-08-18T12:03:49.546Z,99.84
2022-08-18T12:06:27.915Z,100.00
2022-08-18T12:09:04.990Z,100.00
2022-08-18T12:17:21.586Z,90.12
2022-08-18T12:19:52.923Z,92.68
2022-08-18T12:22:27.370Z,95.35
2022-08-18T12:24:57.039Z,87.65
2022-08-18T12:27:32.156Z,85.89
2022-08-18T12:30:03.298Z,90.35
2022-08-18T12:32:46.787Z,93.71
2022-08-18T12:35:22.590Z,93.42
2022-08-18T12:38:11.244Z,94.70
2022-08-18T12:40:43.916Z,94.71
2022-08-18T12:43:13.686Z,94.62
2022-08-18T12:45:43.766Z,92.77
2022-08-18T12:48:13.438Z,90.75
2022-08-18T12:50:54.711Z,87.33
2022-08-18T12:56:25.909Z,89.62
2022-08-18T12:58:55.835Z,83.87
2022-08-18T13:01:26.701Z,87.90
2022-08-18T13:04:12.576Z,89.11
2022-08-18T13:07:00.646Z,92.21
2022-08-18T13:09:52.752Z,94.64
2022-08-18T13:12:25.474Z,95.12
2022-08-18T13:14:55.831Z,96.52
2022-08-18T13:17:33.841Z,90.79
2022-08-18T13:20:09.975Z,89.79
2022-08-18T13:22:41.631Z,91.68
2022-08-18T13:25:33.237Z,95.91
2022-08-18T13:28:06.821Z,95.35
2022-08-18T13:30:36.557Z,97.52
2022-08-18T13:33:35.263Z,97.10
2022-08-18T13:35:57.722Z,96.53
2022-08-18T13:38:29.439Z,99.23
2022-08-18T13:41:03.523Z,98.04
2022-08-18T13:43:42.026Z,99.51
2022-08-18T13:46:15.889Z,97.47
2022-08-18T13:48:46.983Z,98.42
2022-08-18T13:51:24.980Z,98.11
2022-08-18T13:54:17.724Z,98.16
2022-08-18T13:56:51.329Z,98.27
2022-08-18T13:59:23.037Z,98.97
2022-08-18T14:01:53.949Z,98.87
2022-08-18T14:04:27.805Z,100.00
2022-08-18T14:06:59.042Z,100.00
2022-08-18T14:09:36.091Z,100.00
2022-08-18T14:12:22.972Z,100.00
2022-08-18T14:14:56.911Z,100.00
2022-08-18T14:17:28.116Z,100.00
2022-08-18T14:20:21.565Z,100.00
2022-08-18T14:23:11.772Z,100.00
2022-08-18T14:26:00.439Z,100.00
2022-08-18T14:28:31.734Z,100.00
2022-08-18T14:31:04.798Z,100.00
2022-08-18T14:33:50.295Z,100.00
2022-08-18T14:36:30.008Z,100.00
2022-08-18T14:39:00.448Z,100.00
2022-08-18T14:41:32.680Z,100.00
2022-08-18T14:44:13.627Z,100.00
2022-08-18T14:46:51.865Z,100.00
2022-08-18T14:49:29.113Z,100.00
2022-08-18T14:52:00.818Z,100.00
2022-08-18T14:54:31.404Z,100.00
2022-08-18T14:57:05.381Z,100.00
2022-08-18T14:59:37.681Z,100.00
2022-08-18T15:02:13.429Z,100.00
2022-08-18T15:04:53.129Z,100.00
2022-08-18T15:07:26.627Z,100.00
2022-08-18T15:10:15.226Z,100.00
2022-08-18T15:12:47.857Z,100.00
2022-08-18T15:15:19.395Z,100.00
2022-08-18T15:17:53.138Z,100.00
2022-08-18T15:20:29.620Z,100.00
2022-08-18T15:23:22.773Z,100.00
2022-08-18T15:25:58.873Z,100.00
2022-08-18T15:28:30.337Z,100.00
2022-08-18T15:33:51.075Z,100.00
2022-08-18T15:36:29.041Z,100.00
2022-08-18T15:38:59.940Z,100.00
2022-08-18T15:41:44.280Z,100.00
2022-08-18T15:44:19.261Z,100.00
2022-08-18T15:46:51.300Z,100.00
2022-08-18T15:49:23.900Z,100.00
2022-08-18T15:51:53.396Z,100.00
2022-08-18T15:54:23.039Z,100.00
2022-08-18T15:56:58.469Z,100.00
2022-08-18T15:59:40.018Z,100.00
2022-08-18T16:02:11.782Z,100.00
2022-08-18T16:04:48.579Z,100.00
2022-08-18T16:07:39.909Z,100.00
2022-08-18T16:10:10.388Z,100.00
2022-08-18T16:12:45.800Z,100.00
2022-08-18T16:15:21.454Z,100.00
2022-08-18T16:17:54.506Z,100.00
2022-08-18T16:20:24.988Z,100.00
2022-08-18T16:22:58.665Z,100.00
2022-08-18T16:25:29.149Z,100.00
2022-08-18T16:28:01.383Z,100.00
2022-08-18T16:30:33.584Z,100.00
2022-08-18T16:33:05.565Z,100.00
2022-08-18T16:35:37.288Z,100.00
2022-08-18T16:38:09.434Z,100.00
2022-08-18T16:40:40.303Z,100.00
2022-08-18T16:43:10.400Z,100.00
2022-08-18T16:45:42.868Z,100.00
2022-08-18T16:48:16.646Z,100.00
2022-08-18T16:50:47.138Z,100.00
2022-08-18T16:53:17.061Z,100.00
2022-08-18T16:55:46.912Z,100.00
2022-08-18T16:58:34.701Z,100.00
2022-08-18T17:01:23.525Z,100.00
2022-08-18T17:04:20.408Z,100.00
2022-08-18T17:06:51.451Z,100.00
2022-08-18T17:09:22.841Z,100.00
2022-08-18T17:11:52.985Z,100.00
2022-08-18T17:14:27.681Z,100.00
2022-08-18T17:17:00.516Z,100.00
2022-08-18T17:19:35.092Z,100.00
2022-08-18T17:22:08.100Z,100.00
2022-08-18T17:24:38.245Z,100.00
2022-08-18T17:27:26.246Z,100.00
2022-08-18T17:30:06.844Z,100.00
2022-08-18T17:32:48.416Z,100.00
2022-08-18T17:35:28.867Z,100.00
2022-08-18T17:38:08.435Z,100.00
2022-08-18T17:40:46.432Z,100.00
2022-08-18T17:43:21.880Z,100.00
2022-08-18T17:45:58.877Z,100.00
2022-08-18T17:48:37.237Z,100.00
2022-08-18T17:51:32.729Z,100.00
2022-08-18T17:54:19.011Z,100.00
2022-08-18T17:56:54.708Z,100.00
2022-08-18T17:59:46.144Z,100.00
2022-08-18T18:02:29.570Z,100.00
2022-08-18T18:05:05.356Z,100.00
2022-08-18T18:07:40.805Z,100.00
2022-08-18T18:10:16.974Z,100.00
2022-08-18T18:12:46.504Z,100.00
2022-08-18T18:15:32.121Z,100.00
2022-08-18T18:18:24.812Z,100.00
2022-08-18T18:21:08.686Z,100.00
2022-08-18T18:23:43.420Z,100.00
2022-08-18T18:26:29.417Z,100.00
2022-08-18T18:29:29.090Z,100.00
2022-08-18T18:32:04.104Z,100.00
2022-08-18T18:34:39.725Z,100.00
2022-08-18T18:37:29.499Z,100.00
2022-08-18T18:40:03.094Z,100.00
2022-08-18T18:42:36.973Z,100.00
2022-08-18T18:45:21.765Z,100.00
2022-08-18T18:48:05.455Z,100.00
2022-08-18T18:50:55.624Z,100.00
2022-08-18T18:53:45.456Z,100.00
2022-08-18T18:56:23.922Z,100.00
2022-08-18T18:59:14.077Z,100.00
2022-08-18T19:02:00.173Z,100.00
2022-08-18T19:04:38.550Z,100.00
2022-08-18T19:07:21.513Z,100.00
2022-08-18T19:10:00.224Z,100.00
2022-08-18T19:12:35.403Z,100.00
2022-08-18T19:15:14.601Z,100.00
2022-08-18T19:17:50.990Z,100.00
2022-08-18T19:20:28.165Z,100.00
2022-08-18T19:23:05.808Z,100.00
2022-08-18T19:25:46.808Z,100.00
2022-08-18T19:29:12.112Z,100.00
2022-08-18T19:31:32.753Z,100.00
2022-08-18T19:34:13.551Z,100.00
2022-08-18T19:36:56.129Z,100.00
2022-08-18T19:39:36.712Z,100.00
2022-08-18T19:42:18.622Z,100.00
2022-08-18T19:45:15.471Z,100.00
2022-08-18T19:47:55.576Z,100.00
2022-08-18T19:50:33.614Z,100.00
2022-08-18T19:53:31.160Z,100.00
2022-08-18T19:56:32.701Z,100.00
2022-08-18T20:00:14.514Z,100.00
2022-08-18T20:03:48.643Z,100.00
2022-08-18T20:06:36.028Z,100.00
2022-08-18T20:09:47.517Z,100.00
2022-08-18T20:12:48.108Z,100.00
2022-08-18T20:15:24.620Z,100.00
2022-08-18T20:18:22.758Z,100.00
2022-08-18T20:21:46.343Z,100.00
2022-08-18T20:24:48.382Z,100.00
2022-08-18T20:27:35.858Z,100.00
2022-08-18T20:30:33.937Z,100.00
2022-08-18T20:33:34.217Z,100.00
2022-08-18T20:36:27.049Z,100.00
2022-08-18T20:38:59.487Z,100.00
2022-08-18T20:41:50.596Z,100.00
2022-08-18T20:44:58.736Z,100.00
2022-08-18T20:48:13.839Z,100.00
2022-08-18T20:51:11.268Z,100.00
2022-08-18T20:54:13.646Z,100.00
2022-08-18T20:56:50.695Z,100.00
2022-08-18T20:59:30.584Z,100.00
2022-08-18T21:02:07.274Z,100.00
2022-08-18T21:04:52.982Z,100.00
2022-08-18T21:07:36.979Z,100.00
2022-08-18T21:10:21.280Z,100.00
2022-08-18T21:12:54.100Z,100.00
2022-08-18T21:15:29.083Z,100.00
2022-08-18T21:18:02.070Z,100.00
2022-08-18T21:20:35.166Z,100.00
2022-08-18T21:23:10.530Z,100.00
2022-08-18T21:25:52.545Z,100.00
2022-08-18T21:28:24.232Z,100.00
2022-08-18T21:31:42.965Z,100.00
2022-08-18T21:33:52.737Z,100.00
2022-08-18T21:36:31.697Z,100.00
2022-08-18T21:39:12.168Z,100.00
2022-08-18T21:41:48.173Z,100.00
2022-08-18T21:44:24.661Z,100.00
2022-08-18T21:47:07.061Z,100.00
2022-08-18T21:49:37.684Z,100.00
2022-08-18T21:52:08.551Z,100.00
2022-08-18T21:54:41.564Z,100.00
2022-08-18T21:57:26.285Z,100.00
2022-08-18T22:00:23.736Z,100.00
2022-08-18T22:03:20.422Z,100.00
2022-08-18T22:06:00.943Z,100.00
2022-08-18T22:08:49.771Z,100.00
2022-08-18T22:12:01.467Z,100.00
2022-08-18T22:14:55.215Z,100.00
2022-08-18T22:17:33.829Z,100.00
2022-08-18T22:20:46.390Z,100.00
2022-08-18T22:23:56.719Z,100.00
2022-08-18T22:26:30.657Z,100.00
2022-08-18T22:29:13.227Z,100.00
2022-08-18T22:31:47.047Z,100.00
2022-08-18T22:34:27.169Z,100.00
2022-08-18T22:37:02.646Z,100.00
2022-08-18T22:39:39.158Z,100.00
2022-08-18T22:42:10.617Z,100.00
2022-08-18T22:44:40.785Z,100.00
2022-08-18T22:47:11.092Z,100.00
2022-08-18T22:49:45.268Z,100.00
2022-08-18T22:52:29.889Z,100.00
2022-08-18T22:55:07.033Z,100.00
2022-08-18T22:57:37.417Z,100.00
2022-08-18T23:00:12.922Z,100.00
2022-08-18T23:02:43.385Z,100.00
2022-08-18T23:05:13.329Z,100.00
2022-08-18T23:07:43.277Z,100.00
2022-08-18T23:10:16.432Z,100.00
2022-08-18T23:12:48.725Z,100.00
2022-08-18T23:15:20.291Z,100.00
2022-08-18T23:17:49.783Z,100.00
2022-08-18T23:20:20.016Z,100.00
2022-08-18T23:22:49.644Z,100.00
2022-08-18T23:25:20.529Z,100.00
2022-08-18T23:27:52.623Z,100.00
2022-08-18T23:30:22.533Z,100.00
2022-08-18T23:32:52.175Z,100.00
2022-08-18T23:35:21.867Z,100.00
2022-08-18T23:37:51.321Z,100.00
2022-08-18T23:40:22.770Z,100.00
2022-08-18T23:42:52.400Z,100.00
2022-08-18T23:45:22.204Z,100.00
2022-08-18T23:47:52.793Z,100.00
2022-08-18T23:50:26.509Z,100.00
2022-08-18T23:52:58.221Z,100.00
2022-08-18T23:55:29.404Z,100.00
2022-08-18T23:57:58.881Z,100.00
